Time;durP1;ratioP1;P1;durP2;ratioP2;P2;SDS_P1;SDS_P2;PMS_P1;PMS_P2;Temp;Humidity;BMP_temperature;BMP_pressure;BME280_temperature;BME280_humidity;BME280_pressure;Samples;Min_cycle;Max_cycle;Signal;HPM_P1;HPM_P2
2021/12/29 00:01:20;;;;;;;;;6.75;3.75;;;;;;;;5033186;28;46308;-65
2021/12/29 00:03:45;;;;;;;;;5.25;4.00;;;;;;;;5035343;28;45654;-66
2021/12/29 00:06:11;;;;;;;;;7.00;3.75;;;;;;;;5035065;28;45333;-65
2021/12/29 00:08:36;;;;;;;;;7.75;5.25;;;;;;;;5036904;28;45494;-66
2021/12/29 00:11:02;;;;;;;;;6.75;4.75;;;;;;;;5034657;28;45518;-66
2021/12/29 00:13:27;;;;;;;;;8.50;2.75;;;;;;;;5034064;28;45513;-66
2021/12/29 00:15:57;;;;;;;;;9.25;5.25;;;;;;;;5034841;28;45360;-66
2021/12/29 00:18:23;;;;;;;;;6.25;4.00;;;;;;;;5018885;28;45392;-65
2021/12/29 00:20:49;;;;;;;;;11.75;6.00;;;;;;;;5032216;28;47225;-66
2021/12/29 00:23:14;;;;;;;;;6.50;5.00;;;;;;;;5034143;28;45201;-66
2021/12/29 00:25:39;;;;;;;;;6.00;5.25;;;;;;;;5033406;28;45470;-66
2021/12/29 00:28:04;;;;;;;;;6.00;3.00;;;;;;;;5034009;28;45254;-66
2021/12/29 00:30:30;;;;;;;;;8.00;5.25;;;;;;;;5034370;28;45471;-66
2021/12/29 00:32:56;;;;;;;;;5.50;5.00;;;;;;;;5035888;28;45187;-66
2021/12/29 00:35:21;;;;;;;;;5.25;5.25;;;;;;;;5033325;28;45397;-66
2021/12/29 00:37:46;;;;;;;;;5.25;1.75;;;;;;;;5032963;28;45216;-66
2021/12/29 00:40:12;;;;;;;;;8.25;6.75;;;;;;;;5032772;28;45372;-66
2021/12/29 00:42:38;;;;;;;;;9.00;5.25;;;;;;;;5034130;28;45318;-66
2021/12/29 00:45:04;;;;;;;;;7.50;4.50;;;;;;;;5034954;28;45301;-66
2021/12/29 00:47:31;;;;;;;;;6.00;3.50;;;;;;;;5035377;28;45412;-66
2021/12/29 00:49:59;;;;;;;;;5.25;5.00;;;;;;;;5033837;28;46246;-66
2021/12/29 00:52:24;;;;;;;;;7.75;4.00;;;;;;;;5034016;28;45653;-66
2021/12/29 00:54:49;;;;;;;;;6.25;5.50;;;;;;;;5034065;28;45425;-66
2021/12/29 00:57:14;;;;;;;;;6.25;4.25;;;;;;;;5033696;28;45566;-66
2021/12/29 00:59:39;;;;;;;;;11.00;4.25;;;;;;;;5035923;28;46628;-66
2021/12/29 01:02:05;;;;;;;;;8.00;6.75;;;;;;;;5034036;28;45440;-66
2021/12/29 01:04:30;;;;;;;;;10.25;5.00;;;;;;;;5033748;28;45313;-66
2021/12/29 01:06:55;;;;;;;;;7.00;3.75;;;;;;;;5034155;28;45498;-66
2021/12/29 01:09:21;;;;;;;;;8.00;4.75;;;;;;;;5018074;28;46187;-66
2021/12/29 01:11:46;;;;;;;;;7.00;5.00;;;;;;;;5035948;28;45474;-66
2021/12/29 01:14:12;;;;;;;;;6.25;3.75;;;;;;;;5034076;28;45537;-66
2021/12/29 01:16:37;;;;;;;;;7.25;6.00;;;;;;;;5032363;28;45257;-66
2021/12/29 01:19:14;;;;;;;;;8.50;6.75;;;;;;;;5031951;28;46266;-66
2021/12/29 01:21:41;;;;;;;;;7.00;5.00;;;;;;;;5033782;28;45595;-66
2021/12/29 01:24:07;;;;;;;;;13.75;7.00;;;;;;;;5034284;28;45346;-66
2021/12/29 01:26:33;;;;;;;;;12.00;8.75;;;;;;;;5035065;28;45556;-66
2021/12/29 01:28:58;;;;;;;;;7.75;6.50;;;;;;;;5033429;28;46155;-66
2021/12/29 01:31:23;;;;;;;;;6.00;6.00;;;;;;;;5033235;28;45487;-66
2021/12/29 01:33:48;;;;;;;;;8.75;8.00;;;;;;;;5015706;28;45327;-66
2021/12/29 01:36:14;;;;;;;;;8.25;6.00;;;;;;;;5033416;28;45488;-66
2021/12/29 01:38:39;;;;;;;;;5.00;4.75;;;;;;;;5035295;28;47032;-65
2021/12/29 01:41:04;;;;;;;;;7.50;7.50;;;;;;;;5033341;28;45456;-65
2021/12/29 01:43:29;;;;;;;;;11.25;5.75;;;;;;;;5033455;28;45437;-65
2021/12/29 01:45:55;;;;;;;;;6.50;6.00;;;;;;;;5033959;28;45348;-65
2021/12/29 01:48:20;;;;;;;;;13.00;7.75;;;;;;;;5033709;28;45600;-65
2021/12/29 01:50:49;;;;;;;;;11.50;6.25;;;;;;;;5035873;28;45449;-65
2021/12/29 01:53:22;;;;;;;;;10.75;9.00;;;;;;;;5033694;28;45312;-66
2021/12/29 01:55:48;;;;;;;;;9.00;7.00;;;;;;;;5031536;28;45570;-66
2021/12/29 01:58:14;;;;;;;;;7.00;4.25;;;;;;;;5031447;28;46131;-66
2021/12/29 02:00:41;;;;;;;;;8.50;7.00;;;;;;;;5015511;28;45507;-66
2021/12/29 02:03:08;;;;;;;;;9.75;7.25;;;;;;;;5033658;28;45444;-66
2021/12/29 02:05:33;;;;;;;;;10.75;3.75;;;;;;;;5033119;28;45505;-66
2021/12/29 02:07:58;;;;;;;;;6.50;4.75;;;;;;;;5032737;28;45348;-66
2021/12/29 02:10:24;;;;;;;;;8.75;4.50;;;;;;;;5032936;28;45360;-66
2021/12/29 02:12:50;;;;;;;;;10.00;5.00;;;;;;;;5033624;28;45452;-66
2021/12/29 02:15:15;;;;;;;;;7.00;4.75;;;;;;;;5033192;28;45497;-66
2021/12/29 02:17:41;;;;;;;;;7.25;6.00;;;;;;;;5034996;28;45824;-66
2021/12/29 02:20:07;;;;;;;;;11.00;7.00;;;;;;;;5032835;28;45388;-66
2021/12/29 02:22:43;;;;;;;;;9.75;7.75;;;;;;;;5033096;28;45388;-66
2021/12/29 02:27:44;;;;;;;;;9.00;8.00;;;;;;;;5033044;28;45361;-66
2021/12/29 02:30:10;;;;;;;;;7.25;6.25;;;;;;;;5032948;28;45532;-66
2021/12/29 02:32:35;;;;;;;;;9.00;6.75;;;;;;;;5035048;28;45381;-66
2021/12/29 02:35:01;;;;;;;;;6.75;5.00;;;;;;;;5031599;28;45444;-66
2021/12/29 02:37:26;;;;;;;;;12.00;6.75;;;;;;;;5030960;28;45567;-66
2021/12/29 02:39:52;;;;;;;;;9.75;6.75;;;;;;;;5032305;28;45728;-66
2021/12/29 02:42:20;;;;;;;;;9.00;5.00;;;;;;;;5033179;28;45505;-66
2021/12/29 02:44:46;;;;;;;;;11.75;7.00;;;;;;;;5034985;28;45315;-66
2021/12/29 02:47:11;;;;;;;;;6.75;4.25;;;;;;;;5032507;28;46617;-66
2021/12/29 02:49:37;;;;;;;;;9.50;6.00;;;;;;;;5035064;28;45428;-66
2021/12/29 02:52:02;;;;;;;;;12.50;7.50;;;;;;;;5036445;28;45385;-65
2021/12/29 02:54:28;;;;;;;;;10.50;6.75;;;;;;;;5036107;28;45444;-66
2021/12/29 02:56:56;;;;;;;;;5.25;5.25;;;;;;;;5037922;28;45496;-66
2021/12/29 02:59:22;;;;;;;;;6.50;5.75;;;;;;;;5035246;28;45520;-66
2021/12/29 03:01:47;;;;;;;;;7.25;5.25;;;;;;;;5036180;28;45312;-66
2021/12/29 03:04:12;;;;;;;;;8.00;5.50;;;;;;;;5036140;28;45571;-66
2021/12/29 03:06:38;;;;;;;;;11.00;5.75;;;;;;;;5035974;28;47097;-65
2021/12/29 03:09:04;;;;;;;;;6.25;4.00;;;;;;;;5036341;28;45324;-65
2021/12/29 03:11:30;;;;;;;;;8.00;7.25;;;;;;;;5037653;28;45557;-65
2021/12/29 03:13:55;;;;;;;;;5.50;5.50;;;;;;;;5034394;28;45356;-65
2021/12/29 03:16:20;;;;;;;;;6.75;4.00;;;;;;;;5034059;28;45288;-65
2021/12/29 03:18:45;;;;;;;;;8.00;5.50;;;;;;;;5035750;28;45296;-65
2021/12/29 03:21:11;;;;;;;;;5.25;3.25;;;;;;;;5036037;28;45602;-65
2021/12/29 03:23:36;;;;;;;;;2.75;2.25;;;;;;;;5037550;28;45435;-65
2021/12/29 03:26:02;;;;;;;;;6.75;4.00;;;;;;;;5017472;28;46674;-66
2021/12/29 03:28:27;;;;;;;;;6.00;4.50;;;;;;;;5035679;28;45413;-65
2021/12/29 03:30:54;;;;;;;;;6.50;5.75;;;;;;;;5035762;28;45385;-65
2021/12/29 03:33:20;;;;;;;;;8.25;4.00;;;;;;;;5019867;28;45301;-65
2021/12/29 03:35:59;;;;;;;;;7.50;5.50;;;;;;;;5019679;28;47271;-65
2021/12/29 03:38:25;;;;;;;;;6.25;4.25;;;;;;;;5035878;28;45298;-65
2021/12/29 03:40:51;;;;;;;;;7.50;6.00;;;;;;;;5035199;28;45503;-65
2021/12/29 03:43:17;;;;;;;;;3.75;3.25;;;;;;;;5035303;28;45292;-65
2021/12/29 03:45:45;;;;;;;;;4.50;4.50;;;;;;;;5035155;28;46074;-65
2021/12/29 03:48:10;;;;;;;;;4.25;3.00;;;;;;;;5034968;28;45352;-65
2021/12/29 03:50:36;;;;;;;;;5.00;4.00;;;;;;;;5037158;28;45360;-65
2021/12/29 03:53:02;;;;;;;;;6.50;5.00;;;;;;;;5033335;28;45506;-65
2021/12/29 03:55:27;;;;;;;;;5.50;3.75;;;;;;;;5033429;28;45345;-65
2021/12/29 03:57:52;;;;;;;;;4.25;4.00;;;;;;;;5035019;28;45428;-66
2021/12/29 04:00:18;;;;;;;;;4.25;4.00;;;;;;;;5035272;28;45282;-65
2021/12/29 04:02:44;;;;;;;;;7.75;5.00;;;;;;;;5037407;28;45314;-65
2021/12/29 04:05:10;;;;;;;;;5.50;3.50;;;;;;;;5034917;28;47413;-66
2021/12/29 04:07:35;;;;;;;;;4.50;4.00;;;;;;;;5034803;28;45483;-66
2021/12/29 04:10:01;;;;;;;;;8.25;6.00;;;;;;;;5035026;28;45355;-66
2021/12/29 04:12:26;;;;;;;;;4.00;2.25;;;;;;;;5035329;28;45354;-66
2021/12/29 04:14:52;;;;;;;;;9.00;4.50;;;;;;;;5036793;28;46149;-66
2021/12/29 04:17:24;;;;;;;;;6.00;4.00;;;;;;;;5032965;28;45423;-65
2021/12/29 04:22:32;;;;;;;;;2.25;2.00;;;;;;;;5033993;28;45703;-65
2021/12/29 04:24:58;;;;;;;;;5.25;3.25;;;;;;;;5033953;28;45337;-66
2021/12/29 04:27:25;;;;;;;;;2.50;1.25;;;;;;;;5034164;28;45335;-66
2021/12/29 04:29:50;;;;;;;;;4.50;3.00;;;;;;;;5036841;28;45422;-65
2021/12/29 04:32:15;;;;;;;;;5.50;2.00;;;;;;;;5015104;28;45306;-65
2021/12/29 04:34:41;;;;;;;;;5.00;3.75;;;;;;;;5032619;28;45550;-66
2021/12/29 04:37:06;;;;;;;;;3.75;3.00;;;;;;;;5033831;28;45534;-65
2021/12/29 04:39:31;;;;;;;;;3.00;2.25;;;;;;;;5034120;28;45469;-64
2021/12/29 04:41:56;;;;;;;;;4.50;2.75;;;;;;;;5035234;28;45554;-65
2021/12/29 04:44:22;;;;;;;;;2.00;2.00;;;;;;;;5034838;28;46066;-65
2021/12/29 04:46:47;;;;;;;;;4.00;2.00;;;;;;;;5034166;28;45348;-65
2021/12/29 04:49:14;;;;;;;;;6.00;3.00;;;;;;;;5033918;28;45424;-65
2021/12/29 04:51:52;;;;;;;;;4.50;1.75;;;;;;;;5034172;28;45348;-65
2021/12/29 04:54:17;;;;;;;;;0.75;0.75;;;;;;;;5033863;28;46001;-66
2021/12/29 04:56:43;;;;;;;;;3.00;2.00;;;;;;;;5035724;28;45420;-66
2021/12/29 04:59:08;;;;;;;;;4.25;2.25;;;;;;;;5033696;28;45722;-65
2021/12/29 05:01:33;;;;;;;;;1.25;0.25;;;;;;;;5033952;28;45563;-66
2021/12/29 05:03:58;;;;;;;;;2.00;2.00;;;;;;;;5033656;28;46604;-65
2021/12/29 05:09:08;;;;;;;;;1.75;1.75;;;;;;;;5034852;28;45404;-64
2021/12/29 05:11:33;;;;;;;;;3.00;2.00;;;;;;;;5032780;28;45487;-64
2021/12/29 05:13:58;;;;;;;;;4.75;3.00;;;;;;;;5032155;28;45701;-65
2021/12/29 05:16:27;;;;;;;;;0.00;0.00;;;;;;;;5033876;28;45534;-65
2021/12/29 05:18:53;;;;;;;;;3.25;2.00;;;;;;;;5033307;28;45480;-66
2021/12/29 05:21:18;;;;;;;;;3.00;1.50;;;;;;;;5033543;28;45518;-65
2021/12/29 05:23:43;;;;;;;;;1.00;1.00;;;;;;;;5035091;28;47288;-65
2021/12/29 05:26:08;;;;;;;;;1.00;1.00;;;;;;;;5032967;28;45524;-66
2021/12/29 05:28:34;;;;;;;;;3.25;1.25;;;;;;;;5033360;28;45733;-65
2021/12/29 05:30:59;;;;;;;;;4.50;1.00;;;;;;;;5033108;28;45314;-65
2021/12/29 05:33:24;;;;;;;;;3.00;1.50;;;;;;;;5032812;28;46555;-66
2021/12/29 05:35:50;;;;;;;;;5.75;3.00;;;;;;;;5034767;28;45406;-65
2021/12/29 05:38:15;;;;;;;;;4.25;2.00;;;;;;;;5032734;28;45482;-66
2021/12/29 05:40:40;;;;;;;;;3.00;3.00;;;;;;;;5032562;28;45528;-66
2021/12/29 05:43:06;;;;;;;;;1.25;1.25;;;;;;;;5032447;28;46137;-66
2021/12/29 05:45:31;;;;;;;;;2.00;2.00;;;;;;;;5014800;28;45434;-66
2021/12/29 05:47:56;;;;;;;;;3.75;2.75;;;;;;;;5034105;28;45352;-65
2021/12/29 05:50:23;;;;;;;;;1.25;1.00;;;;;;;;5031818;28;45653;-66
2021/12/29 05:52:48;;;;;;;;;2.00;1.00;;;;;;;;5030407;28;45420;-66
2021/12/29 05:55:14;;;;;;;;;4.00;3.00;;;;;;;;5031782;28;45573;-66
2021/12/29 05:57:39;;;;;;;;;2.00;2.00;;;;;;;;5032342;28;45472;-66
2021/12/29 06:00:06;;;;;;;;;3.75;3.00;;;;;;;;5033123;28;45225;-67
2021/12/29 06:02:31;;;;;;;;;3.50;3.50;;;;;;;;5033863;28;47411;-66
2021/12/29 06:04:57;;;;;;;;;4.00;4.00;;;;;;;;5031983;28;45408;-65
2021/12/29 06:07:22;;;;;;;;;4.00;4.00;;;;;;;;5031633;28;46908;-65
2021/12/29 06:09:47;;;;;;;;;5.00;5.00;;;;;;;;5031956;28;45334;-65
2021/12/29 06:12:12;;;;;;;;;6.50;6.50;;;;;;;;5032306;28;46550;-65
2021/12/29 06:14:37;;;;;;;;;5.75;4.50;;;;;;;;5034703;28;45499;-66
2021/12/29 06:17:03;;;;;;;;;7.00;5.00;;;;;;;;5032091;28;45412;-66
2021/12/29 06:19:30;;;;;;;;;5.25;4.25;;;;;;;;5032189;28;45781;-66
2021/12/29 06:21:55;;;;;;;;;4.00;4.00;;;;;;;;5031883;28;46267;-66
2021/12/29 06:24:20;;;;;;;;;5.00;4.50;;;;;;;;5034018;28;45625;-66
2021/12/29 06:26:46;;;;;;;;;7.25;5.75;;;;;;;;5037989;28;45442;-65
2021/12/29 06:29:11;;;;;;;;;4.00;4.00;;;;;;;;5033442;28;45559;-67
2021/12/29 06:31:36;;;;;;;;;2.00;2.00;;;;;;;;5033002;28;47070;-66
2021/12/29 06:34:02;;;;;;;;;5.00;5.00;;;;;;;;5035140;28;45500;-66
2021/12/29 06:36:27;;;;;;;;;4.50;4.50;;;;;;;;5035820;28;45580;-66
2021/12/29 06:38:53;;;;;;;;;3.50;3.50;;;;;;;;5036908;28;45375;-65
2021/12/29 06:41:18;;;;;;;;;4.00;4.00;;;;;;;;5035131;28;45506;-65
2021/12/29 06:43:43;;;;;;;;;5.00;5.00;;;;;;;;5034992;28;45757;-65
2021/12/29 06:46:08;;;;;;;;;6.00;4.75;;;;;;;;5034521;28;45543;-67
2021/12/29 06:48:34;;;;;;;;;5.75;4.00;;;;;;;;5035749;28;45490;-66
2021/12/29 06:50:59;;;;;;;;;3.50;3.50;;;;;;;;5037116;28;46647;-67
2021/12/29 06:53:26;;;;;;;;;9.25;8.00;;;;;;;;5035305;28;45293;-67
2021/12/29 06:55:51;;;;;;;;;6.25;6.00;;;;;;;;5035341;28;45567;-67
2021/12/29 06:58:17;;;;;;;;;5.50;5.50;;;;;;;;5035281;28;45329;-66
2021/12/29 07:00:42;;;;;;;;;5.50;5.50;;;;;;;;5034391;28;45482;-67
2021/12/29 07:03:07;;;;;;;;;5.00;5.00;;;;;;;;5017521;28;45459;-66
2021/12/29 07:05:32;;;;;;;;;5.50;5.50;;;;;;;;5034682;28;45331;-66
2021/12/29 07:07:57;;;;;;;;;8.25;8.25;;;;;;;;5033551;28;45359;-66
2021/12/29 07:10:23;;;;;;;;;9.50;8.25;;;;;;;;5032134;28;47333;-66
2021/12/29 07:12:48;;;;;;;;;12.50;8.25;;;;;;;;5034952;28;45476;-66
2021/12/29 07:15:14;;;;;;;;;9.00;7.50;;;;;;;;5034494;28;45360;-66
2021/12/29 07:17:39;;;;;;;;;6.00;6.00;;;;;;;;5036221;28;45466;-66
2021/12/29 07:20:05;;;;;;;;;8.50;8.50;;;;;;;;5034027;28;46707;-66
2021/12/29 07:22:30;;;;;;;;;7.00;7.00;;;;;;;;5034536;28;45482;-66
2021/12/29 07:24:56;;;;;;;;;8.75;7.50;;;;;;;;5034831;28;45500;-66
2021/12/29 07:27:21;;;;;;;;;5.00;5.00;;;;;;;;5034951;28;45502;-66
2021/12/29 07:29:46;;;;;;;;;4.75;4.75;;;;;;;;5036395;28;47217;-66
2021/12/29 07:32:12;;;;;;;;;6.50;6.50;;;;;;;;5033881;28;45534;-66
2021/12/29 07:34:37;;;;;;;;;6.50;5.75;;;;;;;;5033852;28;45466;-66
2021/12/29 07:37:02;;;;;;;;;10.75;6.25;;;;;;;;5033927;28;45317;-66
2021/12/29 07:39:28;;;;;;;;;9.00;7.00;;;;;;;;5033369;28;46289;-66
2021/12/29 07:41:54;;;;;;;;;10.25;8.75;;;;;;;;5035472;28;45307;-66
2021/12/29 07:44:19;;;;;;;;;7.25;7.25;;;;;;;;5033843;28;45254;-66
2021/12/29 07:46:47;;;;;;;;;5.25;5.25;;;;;;;;5032293;28;45328;-66
2021/12/29 07:49:12;;;;;;;;;6.00;6.00;;;;;;;;5031791;28;46372;-66
2021/12/29 07:51:39;;;;;;;;;6.75;6.00;;;;;;;;5033299;28;45466;-66
2021/12/29 07:54:05;;;;;;;;;7.25;5.75;;;;;;;;5033917;28;45471;-67
2021/12/29 07:56:30;;;;;;;;;8.25;5.50;;;;;;;;5034882;28;45525;-65
2021/12/29 07:58:55;;;;;;;;;6.00;5.25;;;;;;;;5033177;28;45940;-66
2021/12/29 08:01:22;;;;;;;;;6.25;6.25;;;;;;;;5033175;28;45554;-66
2021/12/29 08:03:47;;;;;;;;;8.00;8.00;;;;;;;;5033225;28;45420;-67
2021/12/29 08:06:14;;;;;;;;;8.00;7.00;;;;;;;;5033465;28;45947;-66
2021/12/29 08:08:40;;;;;;;;;8.25;7.75;;;;;;;;5035652;28;46232;-66
2021/12/29 08:11:05;;;;;;;;;8.75;6.75;;;;;;;;5033561;28;45397;-66
2021/12/29 08:13:30;;;;;;;;;7.75;5.50;;;;;;;;5034300;28;45630;-66
2021/12/29 08:15:55;;;;;;;;;5.25;5.25;;;;;;;;5033807;28;45565;-66
2021/12/29 08:18:20;;;;;;;;;5.75;5.75;;;;;;;;5033619;28;45480;-67
2021/12/29 08:20:46;;;;;;;;;8.00;8.00;;;;;;;;5036064;28;45400;-66
2021/12/29 08:23:11;;;;;;;;;6.75;6.75;;;;;;;;5032569;28;45298;-66
2021/12/29 08:25:37;;;;;;;;;8.75;5.75;;;;;;;;5031868;28;45351;-66
2021/12/29 08:28:02;;;;;;;;;5.25;4.75;;;;;;;;5031979;28;46312;-66
2021/12/29 08:30:28;;;;;;;;;6.25;6.25;;;;;;;;5033762;28;45290;-66
2021/12/29 08:32:53;;;;;;;;;4.75;4.75;;;;;;;;5035481;28;45511;-66
2021/12/29 08:35:18;;;;;;;;;11.25;7.75;;;;;;;;5033030;28;45476;-66
2021/12/29 08:37:44;;;;;;;;;8.50;6.25;;;;;;;;5032553;28;46423;-66
2021/12/29 08:40:09;;;;;;;;;6.75;6.50;;;;;;;;5032919;28;45515;-66
2021/12/29 08:42:35;;;;;;;;;8.50;7.00;;;;;;;;5033224;28;45497;-67
2021/12/29 08:45:01;;;;;;;;;8.50;8.50;;;;;;;;5033947;28;45432;-66
2021/12/29 08:47:26;;;;;;;;;8.75;8.75;;;;;;;;5032347;28;45358;-67
2021/12/29 08:49:51;;;;;;;;;8.75;8.75;;;;;;;;5032286;28;45404;-66
2021/12/29 08:52:17;;;;;;;;;7.50;7.00;;;;;;;;5029123;28;45530;-67
2021/12/29 08:54:42;;;;;;;;;7.00;5.50;;;;;;;;5013764;28;45456;-68
2021/12/29 08:57:07;;;;;;;;;8.00;6.25;;;;;;;;5031314;28;45464;-68
2021/12/29 08:59:33;;;;;;;;;7.00;6.00;;;;;;;;5032070;28;45449;-67
2021/12/29 09:01:58;;;;;;;;;7.00;5.75;;;;;;;;5032591;28;45535;-66
2021/12/29 09:04:23;;;;;;;;;7.00;5.75;;;;;;;;5031286;28;45384;-66
2021/12/29 09:06:48;;;;;;;;;9.00;7.00;;;;;;;;5030733;28;45333;-67
2021/12/29 09:09:14;;;;;;;;;8.75;7.50;;;;;;;;5032332;28;45294;-65
2021/12/29 09:11:39;;;;;;;;;8.50;7.50;;;;;;;;5033453;28;45278;-66
2021/12/29 09:14:04;;;;;;;;;7.50;6.00;;;;;;;;5031576;28;45438;-66
2021/12/29 09:16:30;;;;;;;;;8.00;8.00;;;;;;;;5031537;28;46142;-66
2021/12/29 09:18:55;;;;;;;;;7.75;7.50;;;;;;;;5032135;28;45355;-66
2021/12/29 09:21:21;;;;;;;;;8.25;7.00;;;;;;;;5032146;28;45207;-66
2021/12/29 09:23:46;;;;;;;;;7.25;6.25;;;;;;;;5033907;28;45224;-66
2021/12/29 09:26:13;;;;;;;;;5.50;4.00;;;;;;;;5031053;28;46932;-66
2021/12/29 09:28:39;;;;;;;;;5.00;4.00;;;;;;;;5031529;28;45443;-66
2021/12/29 09:31:04;;;;;;;;;5.25;5.25;;;;;;;;5031668;28;45473;-66
2021/12/29 09:33:29;;;;;;;;;5.00;5.00;;;;;;;;5031709;28;45403;-66
2021/12/29 09:36:01;;;;;;;;;5.00;5.00;;;;;;;;5032277;28;45620;-67
2021/12/29 09:38:27;;;;;;;;;9.00;5.00;;;;;;;;5032109;28;45468;-67
2021/12/29 09:40:53;;;;;;;;;4.00;3.50;;;;;;;;5030613;28;45486;-67
2021/12/29 09:43:18;;;;;;;;;5.25;5.25;;;;;;;;5029413;28;45387;-66
2021/12/29 09:45:45;;;;;;;;;6.00;5.00;;;;;;;;5029250;28;46542;-66
2021/12/29 09:48:10;;;;;;;;;8.00;6.50;;;;;;;;5013597;28;45404;-66
2021/12/29 09:50:36;;;;;;;;;5.00;5.00;;;;;;;;5033796;28;45338;-66
2021/12/29 09:53:02;;;;;;;;;4.75;3.75;;;;;;;;5031876;28;45471;-66
2021/12/29 09:55:27;;;;;;;;;5.75;5.00;;;;;;;;5030243;28;46093;-66
2021/12/29 09:57:54;;;;;;;;;6.75;5.00;;;;;;;;5030728;28;45435;-65
2021/12/29 10:00:21;;;;;;;;;6.00;6.00;;;;;;;;5031898;28;45309;-66
2021/12/29 10:02:47;;;;;;;;;6.25;5.00;;;;;;;;5033761;28;45686;-66
2021/12/29 10:05:12;;;;;;;;;5.50;5.50;;;;;;;;5031716;28;45395;-66
2021/12/29 10:07:38;;;;;;;;;4.00;3.00;;;;;;;;5030635;28;45634;-66
2021/12/29 10:10:14;;;;;;;;;5.75;5.75;;;;;;;;5030368;28;45365;-66
2021/12/29 10:12:43;;;;;;;;;5.00;4.00;;;;;;;;5031323;28;45435;-66
2021/12/29 10:15:08;;;;;;;;;5.00;4.00;;;;;;;;5031298;28;47328;-66
2021/12/29 10:17:33;;;;;;;;;9.50;8.25;;;;;;;;5032365;28;45394;-65
2021/12/29 10:20:03;;;;;;;;;8.75;8.75;;;;;;;;5030980;28;45319;-66
2021/12/29 10:22:29;;;;;;;;;5.75;4.25;;;;;;;;5029144;28;45497;-67
2021/12/29 10:25:05;;;;;;;;;6.00;5.00;;;;;;;;5028919;28;47621;-66
2021/12/29 10:27:31;;;;;;;;;5.00;4.00;;;;;;;;4997269;28;45582;-67
2021/12/29 10:29:56;;;;;;;;;4.50;4.50;;;;;;;;5032370;28;45353;-65
2021/12/29 10:32:22;;;;;;;;;4.75;3.75;;;;;;;;5031489;28;45368;-66
2021/12/29 10:34:52;;;;;;;;;3.00;3.00;;;;;;;;5029147;28;45528;-65
2021/12/29 10:37:17;;;;;;;;;2.00;2.00;;;;;;;;5030000;28;45341;-66
2021/12/29 10:39:45;;;;;;;;;1.25;1.25;;;;;;;;5030864;28;45435;-66
2021/12/29 10:42:15;;;;;;;;;3.00;2.00;;;;;;;;5030949;28;45410;-66
2021/12/29 10:44:41;;;;;;;;;3.00;1.25;;;;;;;;5032364;28;46176;-65
2021/12/29 10:47:17;;;;;;;;;2.00;2.00;;;;;;;;5030694;28;45314;-66
2021/12/29 10:49:56;;;;;;;;;2.00;2.00;;;;;;;;5029753;28;45255;-67
2021/12/29 10:52:41;;;;;;;;;2.00;2.00;;;;;;;;5029679;28;45329;-65
2021/12/29 10:55:07;;;;;;;;;2.25;1.75;;;;;;;;5030367;28;47039;-67
2021/12/29 10:57:32;;;;;;;;;3.00;3.00;;;;;;;;5030048;28;45504;-66
2021/12/29 11:00:02;;;;;;;;;3.00;3.00;;;;;;;;5032277;28;45403;-66
2021/12/29 11:02:29;;;;;;;;;7.75;6.75;;;;;;;;5031892;28;45792;-66
2021/12/29 11:04:59;;;;;;;;;5.00;4.00;;;;;;;;5028868;28;47253;-66
2021/12/29 11:07:26;;;;;;;;;3.00;2.75;;;;;;;;5029957;28;45541;-66
2021/12/29 11:09:51;;;;;;;;;3.00;3.00;;;;;;;;5032301;28;45405;-66
2021/12/29 11:12:16;;;;;;;;;1.75;1.75;;;;;;;;5034124;28;45331;-67
2021/12/29 11:14:43;;;;;;;;;2.00;2.00;;;;;;;;5035769;28;46598;-67
2021/12/29 11:17:11;;;;;;;;;1.50;1.25;;;;;;;;5033294;28;45372;-68
2021/12/29 11:19:37;;;;;;;;;2.00;1.00;;;;;;;;5033439;28;45383;-67
2021/12/29 11:22:11;;;;;;;;;1.00;1.00;;;;;;;;5033208;28;45479;-66
2021/12/29 11:24:37;;;;;;;;;1.00;1.00;;;;;;;;5033655;28;46228;-67
2021/12/29 11:27:29;;;;;;;;;0.00;0.00;;;;;;;;5034195;28;45425;-66
2021/12/29 11:29:56;;;;;;;;;4.50;2.00;;;;;;;;5027338;28;45311;-66
2021/12/29 11:32:24;;;;;;;;;0.75;0.50;;;;;;;;5032588;28;45308;-67
2021/12/29 11:35:10;;;;;;;;;1.00;1.00;;;;;;;;5032888;28;45461;-71
2021/12/29 11:37:36;;;;;;;;;0.50;0.50;;;;;;;;5032483;28;45603;-66
2021/12/29 11:40:02;;;;;;;;;1.75;1.75;;;;;;;;5029847;28;45447;-68
2021/12/29 11:42:27;;;;;;;;;0.00;0.00;;;;;;;;5031964;28;45243;-66
2021/12/29 11:44:52;;;;;;;;;1.00;0.00;;;;;;;;5034776;28;45408;-66
2021/12/29 11:47:18;;;;;;;;;0.75;0.75;;;;;;;;5032305;28;45310;-65
2021/12/29 11:49:44;;;;;;;;;1.00;1.00;;;;;;;;5032478;28;45379;-68
2021/12/29 11:52:09;;;;;;;;;0.00;0.00;;;;;;;;5033019;28;45502;-67
2021/12/29 11:54:53;;;;;;;;;1.75;1.00;;;;;;;;5015354;28;48423;-67
2021/12/29 11:57:22;;;;;;;;;2.00;0.00;;;;;;;;5033014;28;45312;-66
2021/12/29 11:59:47;;;;;;;;;0.00;0.00;;;;;;;;5035369;28;45404;-66
2021/12/29 12:02:22;;;;;;;;;0.25;0.25;;;;;;;;5033649;28;45732;-66
2021/12/29 12:04:58;;;;;;;;;0.00;0.00;;;;;;;;5032719;28;46328;-66
2021/12/29 12:07:23;;;;;;;;;0.75;0.75;;;;;;;;5033070;28;45512;-66
2021/12/29 12:09:50;;;;;;;;;0.00;0.00;;;;;;;;5033126;28;45332;-66
2021/12/29 12:12:16;;;;;;;;;1.75;0.50;;;;;;;;5033639;28;45516;-66
2021/12/29 12:14:47;;;;;;;;;2.50;1.00;;;;;;;;5035140;28;46012;-67
2021/12/29 12:17:13;;;;;;;;;0.00;0.00;;;;;;;;5032816;28;45574;-67
2021/12/29 12:19:39;;;;;;;;;1.50;0.50;;;;;;;;5031111;28;45457;-67
2021/12/29 12:22:05;;;;;;;;;0.00;0.00;;;;;;;;5031482;28;45443;-67
2021/12/29 12:24:31;;;;;;;;;0.00;0.00;;;;;;;;5032880;28;46990;-66
2021/12/29 12:26:56;;;;;;;;;1.00;1.00;;;;;;;;5015976;28;45317;-66
2021/12/29 12:29:23;;;;;;;;;1.00;1.00;;;;;;;;5032822;28;45395;-67
2021/12/29 12:32:03;;;;;;;;;1.50;1.50;;;;;;;;5015412;28;45424;-66
2021/12/29 12:34:28;;;;;;;;;0.25;0.25;;;;;;;;5032534;28;45428;-69
2021/12/29 12:36:54;;;;;;;;;3.25;2.00;;;;;;;;5032934;28;45457;-67
2021/12/29 12:39:21;;;;;;;;;0.25;0.25;;;;;;;;5032767;28;45306;-66
2021/12/29 12:41:48;;;;;;;;;1.00;1.00;;;;;;;;5034858;28;45583;-67
2021/12/29 12:44:15;;;;;;;;;2.00;1.00;;;;;;;;5032392;28;46033;-67
2021/12/29 12:46:45;;;;;;;;;1.25;1.25;;;;;;;;5032471;28;45508;-66
2021/12/29 12:49:28;;;;;;;;;0.75;0.75;;;;;;;;5032529;28;45532;-65
2021/12/29 12:52:02;;;;;;;;;2.00;2.00;;;;;;;;5032955;28;45516;-66
2021/12/29 12:54:29;;;;;;;;;2.50;1.50;;;;;;;;5017685;28;45348;-67
2021/12/29 12:56:56;;;;;;;;;2.25;2.25;;;;;;;;5033985;28;45372;-68
2021/12/29 12:59:22;;;;;;;;;2.00;2.00;;;;;;;;5031405;28;45176;-66
2021/12/29 13:01:50;;;;;;;;;3.00;0.00;;;;;;;;5014924;28;45443;-65
2021/12/29 13:04:16;;;;;;;;;0.50;0.50;;;;;;;;5032262;28;46259;-68
2021/12/29 13:06:42;;;;;;;;;1.25;0.50;;;;;;;;5032080;28;45483;-68
2021/12/29 13:09:07;;;;;;;;;2.00;0.25;;;;;;;;5032501;28;45415;-67
2021/12/29 13:11:35;;;;;;;;;2.25;2.25;;;;;;;;5034387;28;45397;-66
2021/12/29 13:14:01;;;;;;;;;0.25;0.25;;;;;;;;5032374;28;46349;-66
2021/12/29 13:16:27;;;;;;;;;0.75;0.75;;;;;;;;5031387;28;45522;-66
2021/12/29 13:18:53;;;;;;;;;3.00;3.00;;;;;;;;5031940;28;45580;-67
2021/12/29 13:21:21;;;;;;;;;0.00;0.00;;;;;;;;5032651;28;45599;-66
2021/12/29 13:23:47;;;;;;;;;0.50;0.50;;;;;;;;5034758;28;47290;-66
2021/12/29 13:26:13;;;;;;;;;0.00;0.00;;;;;;;;5031681;28;45390;-67
2021/12/29 13:28:39;;;;;;;;;0.25;0.25;;;;;;;;5032418;28;45512;-66
2021/12/29 13:31:11;;;;;;;;;0.75;0.75;;;;;;;;5031113;28;45307;-66
2021/12/29 13:33:40;;;;;;;;;0.50;0.50;;;;;;;;5031099;28;45973;-66
2021/12/29 13:36:07;;;;;;;;;0.50;0.00;;;;;;;;5032700;28;45763;-67
2021/12/29 13:38:32;;;;;;;;;1.00;0.25;;;;;;;;5031729;28;45463;-67
2021/12/29 13:41:03;;;;;;;;;1.00;1.00;;;;;;;;5028216;28;45296;-68
2021/12/29 13:43:33;;;;;;;;;0.75;0.75;;;;;;;;5031817;28;46426;-66
2021/12/29 13:46:07;;;;;;;;;1.25;0.25;;;;;;;;5027897;28;45504;-67
2021/12/29 13:48:35;;;;;;;;;0.75;0.00;;;;;;;;5031776;28;45564;-67
2021/12/29 13:51:06;;;;;;;;;1.00;0.00;;;;;;;;5034534;28;45491;-66
2021/12/29 13:53:33;;;;;;;;;0.00;0.00;;;;;;;;5031984;28;45466;-66
2021/12/29 13:56:08;;;;;;;;;2.25;0.50;;;;;;;;5031398;28;45197;-66
2021/12/29 13:58:34;;;;;;;;;0.00;0.00;;;;;;;;5032166;28;45192;-67
2021/12/29 14:00:59;;;;;;;;;0.00;0.00;;;;;;;;5030502;28;45294;-66
2021/12/29 14:03:24;;;;;;;;;0.00;0.00;;;;;;;;5031060;28;46837;-66
2021/12/29 14:05:49;;;;;;;;;0.00;0.00;;;;;;;;5033431;28;45296;-66
2021/12/29 14:08:16;;;;;;;;;0.00;0.00;;;;;;;;5031859;28;45512;-67
2021/12/29 14:10:42;;;;;;;;;0.00;0.00;;;;;;;;5030444;28;45476;-67
2021/12/29 14:13:12;;;;;;;;;0.00;0.00;;;;;;;;5031425;28;45469;-66
2021/12/29 14:15:37;;;;;;;;;1.00;1.00;;;;;;;;5028950;28;45184;-66
2021/12/29 14:18:14;;;;;;;;;2.50;0.00;;;;;;;;5031905;28;45350;-67
2021/12/29 14:20:39;;;;;;;;;0.25;0.00;;;;;;;;5031490;28;45497;-66
2021/12/29 14:23:04;;;;;;;;;0.50;0.50;;;;;;;;5029739;28;46143;-67
2021/12/29 14:25:34;;;;;;;;;0.00;0.00;;;;;;;;5030682;28;45360;-66
2021/12/29 14:27:59;;;;;;;;;0.00;0.00;;;;;;;;5031586;28;45313;-66
2021/12/29 14:30:27;;;;;;;;;0.25;0.25;;;;;;;;5013135;28;45510;-67
2021/12/29 14:32:54;;;;;;;;;0.50;0.50;;;;;;;;5029620;28;46061;-66
2021/12/29 14:35:19;;;;;;;;;0.00;0.00;;;;;;;;5029463;28;45378;-67
2021/12/29 14:37:45;;;;;;;;;0.00;0.00;;;;;;;;5030402;28;45387;-67
2021/12/29 14:40:19;;;;;;;;;2.00;0.00;;;;;;;;5012982;28;45618;-67
2021/12/29 14:42:45;;;;;;;;;0.25;0.00;;;;;;;;5031227;28;45503;-68
2021/12/29 14:45:10;;;;;;;;;0.00;0.00;;;;;;;;5032217;28;45328;-69
2021/12/29 14:47:36;;;;;;;;;0.00;0.00;;;;;;;;5036287;28;45581;-68